createdAt,value
2023-04-01T00:01:19.756Z,98647.43
2023-04-01T00:03:49.561Z,98651.31
2023-04-01T00:06:19.785Z,98643.89
2023-04-01T00:08:48.552Z,98639.61
2023-04-01T00:11:18.296Z,98634.27
2023-04-01T00:13:49.689Z,98638.29
2023-04-01T00:16:22.096Z,98632.34
2023-04-01T00:18:51.966Z,98626.04
2023-04-01T00:21:23.054Z,98622.89
2023-04-01T00:23:52.277Z,98619.35
2023-04-01T00:26:23.121Z,98617.27
2023-04-01T00:28:52.306Z,98617.95
2023-04-01T00:31:21.779Z,98615.32
2023-04-01T00:33:50.741Z,98611.69
2023-04-01T00:36:25.490Z,98606.76
2023-04-01T00:38:54.259Z,98608.97
2023-04-01T00:41:23.102Z,98610.95
2023-04-01T00:43:53.205Z,98611.45
2023-04-01T00:46:21.930Z,98612.45
2023-04-01T00:48:56.576Z,98610.34
2023-04-01T00:51:30.925Z,98604.11
2023-04-01T00:54:02.948Z,98598.69
2023-04-01T00:56:51.038Z,98595.27
2023-04-01T00:59:28.463Z,98592.26
2023-04-01T01:01:57.598Z,98587.46
2023-04-01T01:04:32.568Z,98579.84
2023-04-01T01:07:38.081Z,98570.67
2023-04-01T01:10:40.146Z,98575.98
2023-04-01T01:13:12.776Z,98577.37
2023-04-01T01:16:12.124Z,98577.36
2023-04-01T01:19:10.739Z,98575.02
2023-04-01T01:22:19.767Z,98567.81
2023-04-01T01:25:19.191Z,98560.81
2023-04-01T01:28:30.968Z,98557.20
2023-04-01T01:31:22.323Z,98549.39
2023-04-01T01:34:09.990Z,98547.95
2023-04-01T01:36:41.677Z,98543.98
2023-04-01T01:39:15.111Z,98547.05
2023-04-01T01:41:46.372Z,98546.98
2023-04-01T01:44:17.432Z,98551.34
2023-04-01T01:46:47.118Z,98545.48
2023-04-01T01:49:18.263Z,98545.31
2023-04-01T01:51:46.998Z,98548.18
2023-04-01T01:54:19.068Z,98550.94
2023-04-01T01:56:52.924Z,98548.41
2023-04-01T01:59:23.548Z,98544.22
2023-04-01T02:01:56.962Z,98541.52
2023-04-01T02:04:26.938Z,98536.96
2023-04-01T02:07:04.705Z,98536.54
2023-04-01T02:09:35.397Z,98519.38
2023-04-01T02:12:10.894Z,98532.71
2023-04-01T02:14:55.955Z,98533.70
2023-04-01T02:17:36.950Z,98533.36
2023-04-01T02:20:22.561Z,98531.16
2023-04-01T02:22:55.935Z,98525.02
2023-04-01T02:25:32.324Z,98519.35
2023-04-01T02:28:02.036Z,98517.47
2023-04-01T02:30:34.968Z,98516.77
2023-04-01T02:33:06.752Z,98518.49
2023-04-01T02:35:38.660Z,98509.45
2023-04-01T02:38:10.370Z,98512.29
2023-04-01T02:40:52.960Z,98508.14
2023-04-01T02:43:22.595Z,98508.86
2023-04-01T02:45:51.211Z,98505.98
2023-04-01T02:48:20.290Z,98502.64
2023-04-01T02:50:49.220Z,98501.04
2023-04-01T02:53:18.603Z,98495.69
2023-04-01T02:55:47.432Z,98490.50
2023-04-01T02:58:16.120Z,98483.89
2023-04-01T03:00:44.859Z,98478.75
2023-04-01T03:03:14.816Z,98479.67
2023-04-01T03:05:43.615Z,98484.36
2023-04-01T03:08:13.018Z,98478.55
2023-04-01T03:10:41.759Z,98478.04
2023-04-01T03:13:10.477Z,98478.70
2023-04-01T03:15:39.157Z,98484.73
2023-04-01T03:18:07.742Z,98480.85
2023-04-01T03:20:37.200Z,98478.34
2023-04-01T03:23:06.197Z,98478.75
2023-04-01T03:25:35.107Z,98474.23
2023-04-01T03:28:04.561Z,98467.84
2023-04-01T03:30:33.141Z,98465.20
2023-04-01T03:33:02.181Z,98457.34
2023-04-01T03:35:34.646Z,98458.34
2023-04-01T03:38:04.578Z,98457.13
2023-04-01T03:40:34.327Z,98454.70
2023-04-01T03:43:03.299Z,98453.41
2023-04-01T03:45:32.181Z,98453.42
2023-04-01T03:48:01.055Z,98449.23
2023-04-01T03:50:31.203Z,98450.94
2023-04-01T03:53:01.103Z,98447.68
2023-04-01T03:55:30.005Z,98443.80
2023-04-01T03:57:58.858Z,98443.70
2023-04-01T04:00:27.485Z,98443.23
2023-04-01T04:02:59.843Z,98441.13
2023-04-01T04:05:33.093Z,98443.20
2023-04-01T04:08:02.934Z,98444.91
2023-04-01T04:10:31.716Z,98444.11
2023-04-01T04:13:00.403Z,98431.67
2023-04-01T04:15:30.966Z,98436.18
2023-04-01T04:17:59.973Z,98429.13
2023-04-01T04:20:28.545Z,98424.75
2023-04-01T04:22:57.380Z,98425.50
2023-04-01T04:25:26.116Z,98430.30
2023-04-01T04:27:54.938Z,98428.25
2023-04-01T04:30:24.884Z,98432.52
2023-04-01T04:32:53.727Z,98436.27
2023-04-01T04:35:22.404Z,98435.19
2023-04-01T04:37:51.131Z,98433.52
2023-04-01T04:40:20.944Z,98425.01
2023-04-01T04:42:49.545Z,98430.55
2023-04-01T04:45:18.433Z,98426.46
2023-04-01T04:47:54.854Z,98429.05
2023-04-01T04:50:25.163Z,98426.16
2023-04-01T04:52:53.845Z,98428.71
2023-04-01T04:55:23.313Z,98430.08
2023-04-01T04:58:00.656Z,98426.86
2023-04-01T05:00:29.501Z,98436.98
2023-04-01T05:03:01.926Z,98440.08
2023-04-01T05:05:31.281Z,98440.84
2023-04-01T05:08:00.527Z,98438.08
2023-04-01T05:10:29.530Z,98439.31
2023-04-01T05:12:59.184Z,98438.33
2023-04-01T05:15:27.889Z,98440.73
2023-04-01T05:17:57.280Z,98437.16
2023-04-01T05:20:26.302Z,98431.34
2023-04-01T05:22:58.754Z,98428.87
2023-04-01T05:25:27.554Z,98427.78
2023-04-01T05:27:56.595Z,98431.23
2023-04-01T05:30:25.760Z,98426.92
2023-04-01T05:33:04.218Z,98425.35
2023-04-01T05:35:33.290Z,98422.27
2023-04-01T05:38:02.795Z,98421.34
2023-04-01T05:40:33.670Z,98417.89
2023-04-01T05:43:02.264Z,98419.13
2023-04-01T05:45:31.324Z,98416.23
2023-04-01T05:48:15.138Z,98415.08
2023-04-01T05:50:43.800Z,98414.91
2023-04-01T05:53:13.308Z,98406.38
2023-04-01T05:55:44.563Z,98403.30
2023-04-01T05:58:13.297Z,98398.97
2023-04-01T06:00:42.697Z,98404.45
2023-04-01T06:03:11.727Z,98402.86
2023-04-01T06:05:44.647Z,98398.16
2023-04-01T06:08:19.643Z,98405.34
2023-04-01T06:11:03.179Z,98402.84
2023-04-01T06:14:19.669Z,98401.96
2023-04-01T06:17:24.030Z,98404.90
2023-04-01T06:20:24.394Z,98406.50
2023-04-01T06:23:19.872Z,98398.54
2023-04-01T06:26:00.688Z,98398.54
2023-04-01T06:28:48.577Z,98402.92
2023-04-01T06:31:25.996Z,98401.88
2023-04-01T06:34:48.712Z,98408.84
2023-04-01T06:37:44.460Z,98404.82
2023-04-01T06:40:46.508Z,98403.20
2023-04-01T06:43:42.063Z,98404.91
2023-04-01T06:46:42.278Z,98406.58
2023-04-01T06:50:08.790Z,98401.42
2023-04-01T06:53:14.101Z,98395.04
2023-04-01T06:56:38.737Z,98396.95
2023-04-01T06:59:26.499Z,98400.11
2023-04-01T07:02:05.931Z,98402.13
2023-04-01T07:04:39.549Z,98403.99
2023-04-01T07:07:36.814Z,98400.94
2023-04-01T07:10:18.201Z,98398.35
2023-04-01T07:14:01.312Z,98402.58
2023-04-01T07:17:01.399Z,98402.10
2023-04-01T07:19:58.859Z,98401.15
2023-04-01T07:22:38.074Z,98401.38
2023-04-01T07:25:26.482Z,98402.31
2023-04-01T07:28:18.202Z,98406.98
2023-04-01T07:30:54.031Z,98396.66
2023-04-01T07:33:54.756Z,98398.30
2023-04-01T07:37:03.676Z,98392.41
2023-04-01T07:40:00.917Z,98392.65
2023-04-01T07:42:46.046Z,98389.36
2023-04-01T07:45:26.955Z,98387.79
2023-04-01T07:48:32.441Z,98389.92
2023-04-01T07:51:36.277Z,98389.59
2023-04-01T07:54:15.791Z,98387.05
2023-04-01T07:57:20.197Z,98384.25
2023-04-01T08:00:42.612Z,98388.05
2023-04-01T08:03:33.904Z,98390.16
2023-04-01T08:06:48.800Z,98382.26
2023-04-01T08:09:55.150Z,98377.16
2023-04-01T08:13:42.414Z,98373.42
2023-04-01T08:16:59.023Z,98374.85
2023-04-01T08:20:31.455Z,98377.33
2023-04-01T08:23:13.969Z,98366.75
2023-04-01T08:25:57.355Z,98362.64
2023-04-01T08:28:46.208Z,98359.80
2023-04-01T08:31:33.442Z,98359.63
2023-04-01T08:34:09.678Z,98349.58
2023-04-01T08:36:48.249Z,98352.03
2023-04-01T08:39:31.541Z,98350.85
2023-04-01T08:42:44.665Z,98349.70
2023-04-01T08:46:01.943Z,98347.78
2023-04-01T08:49:04.750Z,98344.41
2023-04-01T08:52:20.172Z,98344.71
2023-04-01T08:55:16.819Z,98344.07
2023-04-01T08:59:00.946Z,98339.51
2023-04-01T09:02:00.106Z,98338.85
2023-04-01T09:06:22.168Z,98337.00
2023-04-01T09:09:03.626Z,98332.81
2023-04-01T09:12:18.954Z,98337.13
2023-04-01T09:15:18.572Z,98338.49
2023-04-01T09:18:12.071Z,98336.44
2023-04-01T09:21:24.835Z,98332.52
2023-04-01T09:24:20.940Z,98336.61
2023-04-01T09:27:15.265Z,98335.16
2023-04-01T09:29:57.020Z,98340.48
2023-04-01T09:32:46.991Z,98331.40
2023-04-01T09:35:42.615Z,98331.31
2023-04-01T09:38:35.357Z,98325.88
2023-04-01T09:41:31.797Z,98328.75
2023-04-01T09:44:37.290Z,98324.84
2023-04-01T09:47:39.055Z,98321.58
2023-04-01T09:50:28.527Z,98319.85
2023-04-01T09:53:38.652Z,98310.92
2023-04-01T09:56:19.928Z,98313.36
2023-04-01T09:58:54.605Z,98310.33
2023-04-01T10:02:11.054Z,98302.91
2023-04-01T10:05:22.716Z,98301.47
2023-04-01T10:08:31.707Z,98299.75
2023-04-01T10:11:22.682Z,98298.48
2023-04-01T10:14:18.607Z,98296.96
2023-04-01T10:17:12.401Z,98298.35
2023-04-01T10:20:20.811Z,98296.73
2023-04-01T10:23:27.679Z,98292.09
2023-04-01T10:26:25.540Z,98299.00
2023-04-01T10:29:26.527Z,98300.99
2023-04-01T10:32:43.578Z,98298.20
2023-04-01T10:35:40.738Z,98298.59
2023-04-01T10:38:46.579Z,98294.81
2023-04-01T10:41:18.279Z,98289.85
2023-04-01T10:45:04.511Z,98290.76
2023-04-01T10:48:04.555Z,98290.41
2023-04-01T10:51:24.888Z,98293.63
2023-04-01T10:54:08.906Z,98292.27
2023-04-01T10:57:58.234Z,98287.98
2023-04-01T11:01:13.813Z,98286.77
2023-04-01T11:04:10.084Z,98278.98
2023-04-01T11:07:09.104Z,98278.74
2023-04-01T11:10:02.657Z,98271.04
2023-04-01T11:13:28.965Z,98265.86
2023-04-01T11:16:00.845Z,98257.48
2023-04-01T11:19:05.882Z,98259.84
2023-04-01T11:21:54.697Z,98262.98
2023-04-01T11:25:20.593Z,98254.48
2023-04-01T11:28:39.176Z,98244.98
2023-04-01T11:31:41.876Z,98240.11
2023-04-01T11:35:03.290Z,98242.34
2023-04-01T11:38:03.598Z,98238.95
2023-04-01T11:41:26.797Z,98234.42
2023-04-01T11:45:17.256Z,98221.84
2023-04-01T11:48:36.045Z,98222.06
2023-04-01T11:51:16.949Z,98229.04
2023-04-01T11:54:16.381Z,98228.64
2023-04-01T11:57:24.959Z,98231.52
2023-04-01T12:00:04.073Z,98234.80
2023-04-01T12:03:25.154Z,98232.36
2023-04-01T12:06:25.299Z,98236.98
2023-04-01T12:09:06.201Z,98231.14
2023-04-01T12:11:42.238Z,98234.60
2023-04-01T12:14:44.522Z,98227.83
2023-04-01T12:17:45.275Z,98224.91
2023-04-01T12:20:14.096Z,98227.86
2023-04-01T12:23:00.593Z,98219.00
2023-04-01T12:26:04.032Z,98220.20
2023-04-01T12:28:46.112Z,98218.00
2023-04-01T12:32:05.363Z,98221.95
2023-04-01T12:34:36.697Z,98228.54
2023-04-01T12:37:19.308Z,98235.80
2023-04-01T12:39:51.198Z,98236.70
2023-04-01T12:42:48.741Z,98230.84
2023-04-01T12:45:56.716Z,98232.17
2023-04-01T12:49:01.300Z,98230.48
2023-04-01T12:51:39.712Z,98223.91
2023-04-01T12:54:46.476Z,98222.02
2023-04-01T12:57:27.162Z,98221.61
2023-04-01T13:00:33.043Z,98216.05
2023-04-01T13:03:29.142Z,98212.52
2023-04-01T13:06:45.220Z,98212.20
2023-04-01T13:09:18.340Z,98210.48
2023-04-01T13:12:21.413Z,98209.59
2023-04-01T13:15:11.933Z,98202.79
2023-04-01T13:17:55.409Z,98200.73
2023-04-01T13:21:09.435Z,98195.46
2023-04-01T13:23:59.115Z,98192.92
2023-04-01T13:26:39.845Z,98199.69
2023-04-01T13:29:14.271Z,98204.17
2023-04-01T13:31:58.036Z,98196.90
2023-04-01T13:34:53.764Z,98203.24
2023-04-01T13:37:28.966Z,98199.46
2023-04-01T13:40:27.424Z,98204.92
2023-04-01T13:43:38.650Z,98199.31
2023-04-01T13:46:16.989Z,98193.95
2023-04-01T13:48:57.740Z,98196.70
2023-04-01T13:52:04.332Z,98194.44
2023-04-01T13:55:03.341Z,98189.84
2023-04-01T13:58:21.571Z,98193.38
2023-04-01T14:01:20.585Z,98189.17
2023-04-01T14:04:41.597Z,98191.58
2023-04-01T14:07:10.280Z,98192.37
2023-04-01T14:10:10.582Z,98192.52
2023-04-01T14:13:40.957Z,98191.39
2023-04-01T14:16:35.627Z,98186.82
2023-04-01T14:19:29.083Z,98183.30
2023-04-01T14:22:24.318Z,98179.61
2023-04-01T14:25:23.621Z,98179.45
2023-04-01T14:27:58.018Z,98178.45
2023-04-01T14:31:13.992Z,98170.95
2023-04-01T14:34:45.077Z,98171.42
2023-04-01T14:37:49.913Z,98174.86
2023-04-01T14:40:40.871Z,98179.88
2023-04-01T14:43:30.062Z,98180.90
2023-04-01T14:47:06.046Z,98184.23
2023-04-01T14:49:48.668Z,98183.23
2023-04-01T14:52:35.502Z,98182.20
2023-04-01T14:55:29.529Z,98176.49
2023-04-01T14:58:20.030Z,98170.70
2023-04-01T15:01:13.186Z,98175.48
2023-04-01T15:03:56.623Z,98178.75
2023-04-01T15:06:53.722Z,98178.38
2023-04-01T15:09:32.381Z,98180.38
2023-04-01T15:12:25.761Z,98178.70
2023-04-01T15:15:03.928Z,98179.09
2023-04-01T15:17:44.198Z,98178.15
2023-04-01T15:20:54.883Z,98177.20
2023-04-01T15:23:41.858Z,98178.00
2023-04-01T15:26:58.757Z,98179.55
2023-04-01T15:30:18.981Z,98181.08
2023-04-01T15:33:10.723Z,98182.66
2023-04-01T15:36:01.547Z,98187.97
2023-04-01T15:38:52.298Z,98190.23
2023-04-01T15:41:36.652Z,98187.39
2023-04-01T15:44:05.308Z,98189.08
2023-04-01T15:46:58.317Z,98188.05
2023-04-01T15:49:43.574Z,98185.67
2023-04-01T15:52:26.297Z,98187.95
2023-04-01T15:55:22.210Z,98183.84
2023-04-01T15:58:43.399Z,98183.20
2023-04-01T16:01:43.910Z,98183.81
2023-04-01T16:04:43.750Z,98184.65
2023-04-01T16:07:38.194Z,98187.56
2023-04-01T16:10:28.545Z,98190.98
2023-04-01T16:13:34.176Z,98195.60
2023-04-01T16:16:27.198Z,98195.63
2023-04-01T16:19:24.216Z,98199.30
2023-04-01T16:21:59.402Z,98199.98
2023-04-01T16:24:52.105Z,98199.86
2023-04-01T16:27:23.479Z,98205.67
2023-04-01T16:30:05.027Z,98208.98
2023-04-01T16:32:52.356Z,98211.23
2023-04-01T16:35:56.997Z,98211.13
2023-04-01T16:38:51.593Z,98210.37
2023-04-01T16:41:33.139Z,98213.23
2023-04-01T16:44:20.644Z,98216.73
2023-04-01T16:47:14.339Z,98215.95
2023-04-01T16:49:59.637Z,98222.33
2023-04-01T16:52:44.505Z,98229.63
2023-04-01T16:55:22.453Z,98229.15
2023-04-01T16:58:00.847Z,98231.42
2023-04-01T17:00:41.799Z,98225.20
2023-04-01T17:03:27.206Z,98232.16
2023-04-01T17:06:14.500Z,98234.38
2023-04-01T17:09:15.007Z,98236.09
2023-04-01T17:11:43.906Z,98236.31
2023-04-01T17:14:46.688Z,98238.99
2023-04-01T17:17:49.131Z,98237.16
2023-04-01T17:20:39.074Z,98241.04
2023-04-01T17:23:33.348Z,98243.30
2023-04-01T17:26:11.492Z,98241.59
2023-04-01T17:28:56.098Z,98239.13
2023-04-01T17:31:27.371Z,98247.77
2023-04-01T17:34:05.187Z,98251.92
2023-04-01T17:36:53.977Z,98253.05
2023-04-01T17:39:41.688Z,98254.57
2023-04-01T17:42:25.954Z,98257.65
2023-04-01T17:45:24.151Z,98254.86
2023-04-01T17:48:34.628Z,98254.59
2023-04-01T17:51:44.883Z,98251.95
2023-04-01T17:54:33.238Z,98254.95
2023-04-01T17:58:14.113Z,98257.29
2023-04-01T18:01:03.378Z,98261.61
2023-04-01T18:04:12.210Z,98262.26
2023-04-01T18:06:51.028Z,98258.48
2023-04-01T18:09:43.387Z,98257.60
2023-04-01T18:12:39.784Z,98262.17
2023-04-01T18:16:07.809Z,98257.40
2023-04-01T18:18:58.324Z,98256.52
2023-04-01T18:21:38.385Z,98259.38
2023-04-01T18:24:21.712Z,98256.48
2023-04-01T18:27:19.250Z,98258.69
2023-04-01T18:30:09.000Z,98258.67
2023-04-01T18:33:05.704Z,98263.81
2023-04-01T18:36:27.864Z,98260.84
2023-04-01T18:39:04.663Z,98261.81
2023-04-01T18:42:06.079Z,98261.60
2023-04-01T18:45:16.980Z,98265.48
2023-04-01T18:48:14.748Z,98264.30
2023-04-01T18:51:11.830Z,98263.42
2023-04-01T18:54:23.493Z,98265.38
2023-04-01T18:56:52.333Z,98261.70
2023-04-01T18:59:40.819Z,98265.91
2023-04-01T19:03:18.108Z,98266.34
2023-04-01T19:05:51.077Z,98265.04
2023-04-01T19:08:24.928Z,98265.73
2023-04-01T19:11:11.947Z,98267.52
2023-04-01T19:13:43.321Z,98265.96
2023-04-01T19:16:33.487Z,98268.98
2023-04-01T19:19:40.579Z,98271.39
2023-04-01T19:22:41.644Z,98271.71
2023-04-01T19:25:39.321Z,98278.86
2023-04-01T19:28:50.034Z,98282.14
2023-04-01T19:32:06.782Z,98286.77
2023-04-01T19:35:35.478Z,98289.69
2023-04-01T19:38:54.650Z,98290.27
2023-04-01T19:41:32.416Z,98292.56
2023-04-01T19:44:16.060Z,98290.45
2023-04-01T19:46:59.739Z,98294.42
2023-04-01T19:49:31.181Z,98296.20
2023-04-01T19:52:32.765Z,98299.85
2023-04-01T19:55:33.463Z,98300.44
2023-04-01T19:58:14.043Z,98307.39
2023-04-01T20:00:54.148Z,98304.91
2023-04-01T20:03:56.486Z,98306.41
2023-04-01T20:06:33.813Z,98307.10
2023-04-01T20:09:49.689Z,98311.20
2023-04-01T20:12:43.884Z,98318.67
2023-04-01T20:15:57.192Z,98319.52
2023-04-01T20:18:58.412Z,98320.27
2023-04-01T20:21:48.919Z,98324.58
2023-04-01T20:24:47.831Z,98328.75
2023-04-01T20:27:33.610Z,98325.63
2023-04-01T20:30:29.728Z,98323.31
2023-04-01T20:33:27.465Z,98321.77
2023-04-01T20:36:20.531Z,98318.01
2023-04-01T20:39:26.096Z,98318.11
2023-04-01T20:42:13.884Z,98313.76
2023-04-01T20:45:22.666Z,98316.55
2023-04-01T20:48:56.181Z,98313.54
2023-04-01T20:51:31.424Z,98314.92
2023-04-01T20:54:22.160Z,98311.85
2023-04-01T20:57:24.785Z,98307.91
2023-04-01T21:00:01.153Z,98310.48
2023-04-01T21:03:28.227Z,98316.51
2023-04-01T21:06:50.358Z,98318.05
2023-04-01T21:09:24.624Z,98320.16
2023-04-01T21:12:28.656Z,98319.31
2023-04-01T21:15:13.711Z,98326.27
2023-04-01T21:18:08.269Z,98328.30
2023-04-01T21:21:13.767Z,98328.81
2023-04-01T21:23:51.319Z,98325.56
2023-04-01T21:26:34.992Z,98326.05
2023-04-01T21:29:52.743Z,98317.81
2023-04-01T21:32:47.053Z,98320.41
2023-04-01T21:35:53.742Z,98317.55
2023-04-01T21:38:40.190Z,98317.13
2023-04-01T21:41:21.289Z,98321.09
2023-04-01T21:44:19.905Z,98323.73
2023-04-01T21:47:20.667Z,98328.52
2023-04-01T21:50:40.983Z,98334.63
2023-04-01T21:53:28.799Z,98340.49
2023-04-01T21:56:48.487Z,98341.46
2023-04-01T21:59:49.046Z,98331.60
2023-04-01T22:02:53.977Z,98324.13
2023-04-01T22:05:43.689Z,98311.46
2023-04-01T22:08:36.446Z,98322.61
2023-04-01T22:11:46.208Z,98317.55
2023-04-01T22:14:35.090Z,98313.89
2023-04-01T22:17:45.206Z,98310.78
2023-04-01T22:21:14.438Z,98317.04
2023-04-01T22:24:21.402Z,98316.34
2023-04-01T22:27:05.055Z,98314.12
2023-04-01T22:30:00.898Z,98308.41
2023-04-01T22:32:36.761Z,98303.95
2023-04-01T22:35:22.736Z,98305.76
2023-04-01T22:38:06.055Z,98297.50
2023-04-01T22:40:53.056Z,98289.54
2023-04-01T22:43:35.761Z,98293.64
2023-04-01T22:46:10.099Z,98287.61
2023-04-01T22:48:48.982Z,98283.95
2023-04-01T22:51:25.585Z,98279.70
2023-04-01T22:54:19.637Z,98278.00
2023-04-01T22:56:57.927Z,98273.77
2023-04-01T22:59:47.996Z,98275.33
2023-04-01T23:02:43.457Z,98268.85
2023-04-01T23:05:18.676Z,98274.96
2023-04-01T23:07:59.156Z,98277.92
2023-04-01T23:10:46.667Z,98280.83
2023-04-01T23:13:26.941Z,98282.99
2023-04-01T23:15:56.598Z,98280.92
2023-04-01T23:18:46.916Z,98279.48
2023-04-01T23:21:48.147Z,98274.73
2023-04-01T23:24:27.971Z,98271.52
2023-04-01T23:27:12.001Z,98275.52
2023-04-01T23:29:44.259Z,98275.34
2023-04-01T23:32:20.534Z,98274.25
2023-04-01T23:35:01.071Z,98279.04
2023-04-01T23:37:29.812Z,98274.16
2023-04-01T23:39:59.722Z,98271.64
2023-04-01T23:42:42.130Z,98272.01
2023-04-01T23:45:18.659Z,98274.23
2023-04-01T23:47:50.834Z,98277.46
2023-04-01T23:50:26.816Z,98281.01
2023-04-01T23:53:25.325Z,98281.52
2023-04-01T23:55:55.337Z,98287.97
2023-04-01T23:58:42.003Z,98291.98
